Terminal Aerodrome Forecast
Issued by NWS

Home | Current Version | Previous Version | Graphics & Text | Print | Product List | Glossary On
Versions: 1 2 3 4 5 6 7 8 9 10 11 12 13 14 15 16 17 18
343
FTUS43 KFGF 280522
TAFBJI
TAF
KBJI 280522Z 2806/2906 31007KT P6SM BKN022
     FM280800 29007KT P6SM BKN020
     FM281300 31009KT P6SM BKN035
     FM290000 33007KT P6SM FEW150=

USA.gov is the U.S. government's official web portal to all federal, state and local government web resources and services.